Hoegh Beijing — LAJL7 — position and weather

sailwx.info

Track history (hours):
 
Tides and Currents Weather Stations Pressure Air Temp Water Temp Dewpoint Dewpoint Depression Visibility Wind Speed Wind Dir Waves Ship Positions

Hoegh Beijing

Last reported at 2018-Jun-16 22:53 UTC. Time now 2018-Jun-17 22:10 UTC.
Position N 19°40' W 096°09'.

Length 183 m; draft 8.3 m.

Type: Other ship. MMSI: 257674000.

Date/timePositionNaut miles runAvg speedWind from/ knotsBaromVisibWave heightAir tempDewpointWater temp
2018-Jun-16 22:53N 19°40' W 096°09'616.2
2018-Jun-16 22:30N 19°35' W 096°05'816.2
2018-Jun-16 22:00N 19°28' W 096°02'816.2
2018-Jun-16 21:30N 19°20' W 095°58'714.0
2018-Jun-16 21:00N 19°13' W 095°59'611.4
2018-Jun-16 20:30N 19°12' W 096°05'3 5.7
2018-Jun-16 20:00N 19°12' W 096°08'0 0.0
2018-Jun-16 19:30N 19°12' W 096°08'0 0.0
2018-Jun-16 19:00N 19°12' W 096°08'0 0.0
2018-Jun-16 18:30N 19°12' W 096°08'0 0.0
2018-Jun-16 18:00N 19°12' W 096°08'0 0.0
2018-Jun-16 17:27N 19°12' W 096°08'0 0.0
2018-Jun-16 17:00N 19°12' W 096°08'0 0.0
2018-Jun-16 16:27N 19°12' W 096°08'0 0.0
2018-Jun-16 15:57N 19°12' W 096°08'0 0.0
2018-Jun-16 15:30N 19°12' W 096°08'0 0.0
2018-Jun-16 15:00N 19°12' W 096°08'0 0.0
2018-Jun-16 14:30N 19°12' W 096°08'0 0.0
2018-Jun-16 13:57N 19°12' W 096°08'0 0.0
2018-Jun-16 13:30N 19°12' W 096°08'0 0.0
2018-Jun-16 13:00N 19°12' W 096°08'0 0.0
2018-Jun-16 12:27N 19°12' W 096°08'0 0.0
2018-Jun-16 12:00N 19°12' W 096°08'0 0.0
2018-Jun-16 11:30N 19°12' W 096°08'0 0.0
2018-Jun-16 11:00N 19°12' W 096°08'0 0.0
2018-Jun-16 10:27N 19°12' W 096°08'0 0.0
2018-Jun-16 09:57N 19°12' W 096°08'0 0.0
2018-Jun-16 09:30N 19°12' W 096°08'0 0.0
2018-Jun-16 09:00N 19°12' W 096°08'0 0.0
2018-Jun-16 08:30N 19°12' W 096°08'0 0.0
2018-Jun-16 07:57N 19°12' W 096°08'0 0.0
2018-Jun-16 07:30N 19°12' W 096°08'0 0.0
2018-Jun-16 07:00N 19°12' W 096°08'0 0.0
2018-Jun-16 06:30N 19°12' W 096°08'0 0.0
2018-Jun-16 06:00N 19°12' W 096°08'0 0.0
2018-Jun-16 05:30N 19°12' W 096°08'0 0.0
2018-Jun-16 05:00N 19°12' W 096°08'0 0.0
2018-Jun-16 04:30N 19°12' W 096°08'0 0.0
2018-Jun-16 04:00N 19°12' W 096°08'0 0.0
2018-Jun-16 03:30N 19°12' W 096°08'0 0.0
2018-Jun-16 03:00N 19°12' W 096°08'0 0.0
2018-Jun-16 02:30N 19°12' W 096°08'0 0.0
2018-Jun-16 02:00N 19°12' W 096°08'0 0.0
2018-Jun-16 01:30N 19°12' W 096°08'0 0.0
2018-Jun-16 01:00N 19°12' W 096°08'0 0.0
2018-Jun-16 00:30N 19°12' W 096°08'0 0.0
2018-Jun-16 00:00N 19°12' W 096°08'0 0.0
2018-Jun-15 23:27N 19°12' W 096°08'0 0.0
2018-Jun-15 22:57N 19°12' W 096°08'0 0.0
2018-Jun-15 22:30N 19°12' W 096°08'0 0.0
2018-Jun-15 22:00N 19°12' W 096°08'0 0.0
2018-Jun-15 21:30N 19°12' W 096°08'0 0.0
2018-Jun-15 21:00N 19°12' W 096°08'0 0.0
2018-Jun-15 20:30N 19°12' W 096°08'0 0.0
2018-Jun-15 19:57N 19°12' W 096°08'0 0.0
2018-Jun-15 19:30N 19°12' W 096°08'0 0.0
2018-Jun-15 19:00N 19°12' W 096°08'0 0.0
2018-Jun-15 18:30N 19°12' W 096°08'0 0.0
2018-Jun-15 18:00N 19°12' W 096°08'0 0.0
2018-Jun-15 17:27N 19°12' W 096°08'0 0.0
2018-Jun-15 17:00N 19°12' W 096°08'0 0.0
2018-Jun-15 16:30N 19°12' W 096°08'0 0.0
2018-Jun-15 15:57N 19°12' W 096°08'0 0.0
2018-Jun-15 15:30N 19°12' W 096°08'0 0.0
2018-Jun-15 15:00N 19°12' W 096°08'0 0.0
2018-Jun-15 14:30N 19°12' W 096°08'0 0.0
2018-Jun-15 14:00N 19°12' W 096°08'0 0.0
2018-Jun-15 13:30N 19°12' W 096°08'0 0.0
2018-Jun-15 13:00N 19°12' W 096°08'0 0.0
2018-Jun-15 12:30N 19°12' W 096°08'0 0.0
2018-Jun-15 12:00N 19°12' W 096°08'0 0.0
2018-Jun-15 11:30N 19°12' W 096°08'1 1.5
2018-Jun-15 11:00N 19°12' W 096°07'4 7.6
2018-Jun-15 10:30N 19°11' W 096°04'3 6.8
2018-Jun-15 10:00N 19°07' W 096°02'0 0.2
2018-Jun-15 09:28N 19°07' W 096°03'0 0.1
2018-Jun-15 08:58N 19°07' W 096°03'0 0.1
2018-Jun-15 08:16N 19°07' W 096°03'0 0.0
2018-Jun-15 07:58N 19°07' W 096°03'0 0.0
2018-Jun-15 07:28N 19°07' W 096°03'0 0.0
2018-Jun-15 06:58N 19°07' W 096°03'0 0.0
2018-Jun-15 06:22N 19°07' W 096°03'0 0.1
2018-Jun-15 05:58N 19°07' W 096°03'0 0.0
2018-Jun-15 05:28N 19°07' W 096°03'0 0.0
2018-Jun-15 04:58N 19°07' W 096°03'0 0.0
2018-Jun-15 04:22N 19°07' W 096°03'0 0.0
2018-Jun-15 03:58N 19°07' W 096°03'0 0.0
2018-Jun-15 03:28N 19°07' W 096°03'0 0.0
2018-Jun-15 02:58N 19°07' W 096°03'0 0.0
2018-Jun-15 02:28N 19°07' W 096°03'0 0.0
2018-Jun-15 01:58N 19°07' W 096°03'0 0.0
2018-Jun-15 01:16N 19°07' W 096°03'0 0.0
2018-Jun-15 00:58N 19°07' W 096°03'0 0.0
2018-Jun-15 00:28N 19°07' W 096°03'0 0.0
2018-Jun-14 23:58N 19°07' W 096°03'0 0.0
2018-Jun-14 23:28N 19°07' W 096°03'0 0.0
2018-Jun-14 22:58N 19°07' W 096°03'0 0.0
2018-Jun-14 22:28N 19°07' W 096°03'0 0.0
2018-Jun-14 21:58N 19°07' W 096°03'0 0.0
2018-Jun-14 21:28N 19°07' W 096°03'0 0.6
2018-Jun-14 21:01N 19°07' W 096°03'5 9.8
2018-Jun-14 20:30N 19°10' W 095°59'612.3
2018-Jun-14 20:00N 19°14' W 095°54'713.9
2018-Jun-14 19:30N 19°15' W 095°46'815.2
2018-Jun-14 18:57N 19°18' W 095°38'  
2018-Jun-08 21:40N 10°27' W 075°49'313.3
2018-Jun-08 21:27N 10°25' W 075°47'613.0
2018-Jun-08 21:00N 10°20' W 075°43'713.5
2018-Jun-08 20:30N 10°19' W 075°37'510.4
2018-Jun-08 20:00N 10°20' W 075°31'2 5.0
2018-Jun-08 19:30N 10°22' W 075°31'0 0.0
2018-Jun-08 19:00N 10°22' W 075°31'0 0.0
2018-Jun-08 18:30N 10°22' W 075°31'0 0.0
2018-Jun-08 18:00N 10°22' W 075°31'0 0.0
2018-Jun-08 17:30N 10°22' W 075°31'0 0.0
2018-Jun-08 16:57N 10°22' W 075°31'0 0.0
2018-Jun-08 16:30N 10°22' W 075°31'0 0.0
2018-Jun-08 16:00N 10°22' W 075°31'0 0.0
2018-Jun-08 15:30N 10°22' W 075°31'0 0.0
2018-Jun-08 15:00N 10°22' W 075°31'0 0.0
2018-Jun-08 14:30N 10°22' W 075°31'0 0.0
2018-Jun-08 14:00N 10°22' W 075°31'0 0.0
2018-Jun-08 13:30N 10°22' W 075°31'0 0.0
2018-Jun-08 13:00N 10°22' W 075°31'0 0.0
2018-Jun-08 12:30N 10°22' W 075°31'0 0.0
2018-Jun-08 12:00N 10°22' W 075°31'1 2.7
2018-Jun-08 11:28N 10°21' W 075°32'510.2
2018-Jun-08 11:00N 10°19' W 075°36'4 7.4
2018-Jun-08 10:30N 10°19' W 075°40'7 9.3
2018-Jun-08 09:47N 10°25' W 075°43'  
Track history (hours):
 
Tides and Currents Weather Stations Pressure Air Temp Water Temp Dewpoint Dewpoint Depression Visibility Wind Speed Wind Dir Waves Ship Positions

Hoegh Beijing

Last reported at 2018-Jun-16 22:53 UTC. Time now 2018-Jun-17 22:10 UTC.
Position N 19°40' W 096°09'.

Length 183 m; draft 8.3 m.

Type: Other ship. MMSI: 257674000.

Date/timePositionNaut miles runAvg speedWind from/ knotsBaromVisibWave heightAir tempDewpointWater temp
2018-Jun-16 22:53N 19°40' W 096°09'616.2
2018-Jun-16 22:30N 19°35' W 096°05'816.2
2018-Jun-16 22:00N 19°28' W 096°02'816.2
2018-Jun-16 21:30N 19°20' W 095°58'714.0
2018-Jun-16 21:00N 19°13' W 095°59'611.4
2018-Jun-16 20:30N 19°12' W 096°05'3 5.7
2018-Jun-16 20:00N 19°12' W 096°08'0 0.0
2018-Jun-16 19:30N 19°12' W 096°08'0 0.0
2018-Jun-16 19:00N 19°12' W 096°08'0 0.0
2018-Jun-16 18:30N 19°12' W 096°08'0 0.0
2018-Jun-16 18:00N 19°12' W 096°08'0 0.0
2018-Jun-16 17:27N 19°12' W 096°08'0 0.0
2018-Jun-16 17:00N 19°12' W 096°08'0 0.0
2018-Jun-16 16:27N 19°12' W 096°08'0 0.0
2018-Jun-16 15:57N 19°12' W 096°08'0 0.0
2018-Jun-16 15:30N 19°12' W 096°08'0 0.0
2018-Jun-16 15:00N 19°12' W 096°08'0 0.0
2018-Jun-16 14:30N 19°12' W 096°08'0 0.0
2018-Jun-16 13:57N 19°12' W 096°08'0 0.0
2018-Jun-16 13:30N 19°12' W 096°08'0 0.0
2018-Jun-16 13:00N 19°12' W 096°08'0 0.0
2018-Jun-16 12:27N 19°12' W 096°08'0 0.0
2018-Jun-16 12:00N 19°12' W 096°08'0 0.0
2018-Jun-16 11:30N 19°12' W 096°08'0 0.0
2018-Jun-16 11:00N 19°12' W 096°08'0 0.0
2018-Jun-16 10:27N 19°12' W 096°08'0 0.0
2018-Jun-16 09:57N 19°12' W 096°08'0 0.0
2018-Jun-16 09:30N 19°12' W 096°08'0 0.0
2018-Jun-16 09:00N 19°12' W 096°08'0 0.0
2018-Jun-16 08:30N 19°12' W 096°08'0 0.0
2018-Jun-16 07:57N 19°12' W 096°08'0 0.0
2018-Jun-16 07:30N 19°12' W 096°08'0 0.0
2018-Jun-16 07:00N 19°12' W 096°08'0 0.0
2018-Jun-16 06:30N 19°12' W 096°08'0 0.0
2018-Jun-16 06:00N 19°12' W 096°08'0 0.0
2018-Jun-16 05:30N 19°12' W 096°08'0 0.0
2018-Jun-16 05:00N 19°12' W 096°08'0 0.0
2018-Jun-16 04:30N 19°12' W 096°08'0 0.0
2018-Jun-16 04:00N 19°12' W 096°08'0 0.0
2018-Jun-16 03:30N 19°12' W 096°08'0 0.0
2018-Jun-16 03:00N 19°12' W 096°08'0 0.0
2018-Jun-16 02:30N 19°12' W 096°08'0 0.0
2018-Jun-16 02:00N 19°12' W 096°08'0 0.0
2018-Jun-16 01:30N 19°12' W 096°08'0 0.0
2018-Jun-16 01:00N 19°12' W 096°08'0 0.0
2018-Jun-16 00:30N 19°12' W 096°08'0 0.0
2018-Jun-16 00:00N 19°12' W 096°08'0 0.0
2018-Jun-15 23:27N 19°12' W 096°08'0 0.0
2018-Jun-15 22:57N 19°12' W 096°08'0 0.0
2018-Jun-15 22:30N 19°12' W 096°08'0 0.0
2018-Jun-15 22:00N 19°12' W 096°08'0 0.0
2018-Jun-15 21:30N 19°12' W 096°08'0 0.0
2018-Jun-15 21:00N 19°12' W 096°08'0 0.0
2018-Jun-15 20:30N 19°12' W 096°08'0 0.0
2018-Jun-15 19:57N 19°12' W 096°08'0 0.0
2018-Jun-15 19:30N 19°12' W 096°08'0 0.0
2018-Jun-15 19:00N 19°12' W 096°08'0 0.0
2018-Jun-15 18:30N 19°12' W 096°08'0 0.0
2018-Jun-15 18:00N 19°12' W 096°08'0 0.0
2018-Jun-15 17:27N 19°12' W 096°08'0 0.0
2018-Jun-15 17:00N 19°12' W 096°08'0 0.0
2018-Jun-15 16:30N 19°12' W 096°08'0 0.0
2018-Jun-15 15:57N 19°12' W 096°08'0 0.0
2018-Jun-15 15:30N 19°12' W 096°08'0 0.0
2018-Jun-15 15:00N 19°12' W 096°08'0 0.0
2018-Jun-15 14:30N 19°12' W 096°08'0 0.0
2018-Jun-15 14:00N 19°12' W 096°08'0 0.0
2018-Jun-15 13:30N 19°12' W 096°08'0 0.0
2018-Jun-15 13:00N 19°12' W 096°08'0 0.0
2018-Jun-15 12:30N 19°12' W 096°08'0 0.0
2018-Jun-15 12:00N 19°12' W 096°08'0 0.0
2018-Jun-15 11:30N 19°12' W 096°08'1 1.5
2018-Jun-15 11:00N 19°12' W 096°07'4 7.6
2018-Jun-15 10:30N 19°11' W 096°04'3 6.8
2018-Jun-15 10:00N 19°07' W 096°02'0 0.2
2018-Jun-15 09:28N 19°07' W 096°03'0 0.1
2018-Jun-15 08:58N 19°07' W 096°03'0 0.1
2018-Jun-15 08:16N 19°07' W 096°03'0 0.0
2018-Jun-15 07:58N 19°07' W 096°03'0 0.0
2018-Jun-15 07:28N 19°07' W 096°03'0 0.0
2018-Jun-15 06:58N 19°07' W 096°03'0 0.0
2018-Jun-15 06:22N 19°07' W 096°03'0 0.1
2018-Jun-15 05:58N 19°07' W 096°03'0 0.0
2018-Jun-15 05:28N 19°07' W 096°03'0 0.0
2018-Jun-15 04:58N 19°07' W 096°03'0 0.0
2018-Jun-15 04:22N 19°07' W 096°03'0 0.0
2018-Jun-15 03:58N 19°07' W 096°03'0 0.0
2018-Jun-15 03:28N 19°07' W 096°03'0 0.0
2018-Jun-15 02:58N 19°07' W 096°03'0 0.0
2018-Jun-15 02:28N 19°07' W 096°03'0 0.0
2018-Jun-15 01:58N 19°07' W 096°03'0 0.0
2018-Jun-15 01:16N 19°07' W 096°03'0 0.0
2018-Jun-15 00:58N 19°07' W 096°03'0 0.0
2018-Jun-15 00:28N 19°07' W 096°03'0 0.0
2018-Jun-14 23:58N 19°07' W 096°03'0 0.0
2018-Jun-14 23:28N 19°07' W 096°03'0 0.0
2018-Jun-14 22:58N 19°07' W 096°03'0 0.0
2018-Jun-14 22:28N 19°07' W 096°03'0 0.0
2018-Jun-14 21:58N 19°07' W 096°03'0 0.0
2018-Jun-14 21:28N 19°07' W 096°03'0 0.6
2018-Jun-14 21:01N 19°07' W 096°03'5 9.8
2018-Jun-14 20:30N 19°10' W 095°59'612.3
2018-Jun-14 20:00N 19°14' W 095°54'713.9
2018-Jun-14 19:30N 19°15' W 095°46'815.2
2018-Jun-14 18:57N 19°18' W 095°38'  
2018-Jun-08 21:40N 10°27' W 075°49'313.3
2018-Jun-08 21:27N 10°25' W 075°47'613.0
2018-Jun-08 21:00N 10°20' W 075°43'713.5
2018-Jun-08 20:30N 10°19' W 075°37'510.4
2018-Jun-08 20:00N 10°20' W 075°31'2 5.0
2018-Jun-08 19:30N 10°22' W 075°31'0 0.0
2018-Jun-08 19:00N 10°22' W 075°31'0 0.0
2018-Jun-08 18:30N 10°22' W 075°31'0 0.0
2018-Jun-08 18:00N 10°22' W 075°31'0 0.0
2018-Jun-08 17:30N 10°22' W 075°31'0 0.0
2018-Jun-08 16:57N 10°22' W 075°31'0 0.0
2018-Jun-08 16:30N 10°22' W 075°31'0 0.0
2018-Jun-08 16:00N 10°22' W 075°31'0 0.0
2018-Jun-08 15:30N 10°22' W 075°31'0 0.0
2018-Jun-08 15:00N 10°22' W 075°31'0 0.0
2018-Jun-08 14:30N 10°22' W 075°31'0 0.0
2018-Jun-08 14:00N 10°22' W 075°31'0 0.0
2018-Jun-08 13:30N 10°22' W 075°31'0 0.0
2018-Jun-08 13:00N 10°22' W 075°31'0 0.0
2018-Jun-08 12:30N 10°22' W 075°31'0 0.0
2018-Jun-08 12:00N 10°22' W 075°31'1 2.7
2018-Jun-08 11:28N 10°21' W 075°32'510.2
2018-Jun-08 11:00N 10°19' W 075°36'4 7.4
2018-Jun-08 10:30N 10°19' W 075°40'7 9.3
2018-Jun-08 09:47N 10°25' W 075°43'  

Dump ship's entire track history